Keensburg, Illinois
Current Conditions -  °F | °C
As of 10:15 PM on Wednesday 26 Nov 2014 (Local Time) from KAJG Reporting Station
Light Snow Light Snow  
Wind Chill: 28°   Ceiling: 800
Heat Index: 34°   Visibility: 2.5mi
Dew Point: 32°   Wind: 7mph
Humidity: 93%   Direction: 360°N
Pressure: 30.09"   Gusts: NA
Location:  38.35°N, 87.87°W
Report Text: KAJG 270415Z AUTO 36006KT 2 1/2SM -SN SCT004 OVC008 01/00 A3009 RMK AO2
Loading
Personal Weather Stations






























Interactive Weather Map New forecast layout! Learn more

10-Day Weather Forecast

Advertisements
Track Severe Weather on mobile